createdAt,value
2023-04-22T00:01:02.336Z,7.10
2023-04-22T00:03:31.430Z,6.80
2023-04-22T00:06:00.087Z,5.95
2023-04-22T00:08:28.551Z,6.90
2023-04-22T00:10:57.135Z,5.57
2023-04-22T00:13:25.370Z,6.88
2023-04-22T00:15:55.005Z,6.53
2023-04-22T00:18:23.231Z,8.60
2023-04-22T00:20:51.380Z,5.40
2023-04-22T00:23:19.626Z,8.02
2023-04-22T00:25:47.865Z,4.90
2023-04-22T00:28:18.437Z,4.40
2023-04-22T00:30:46.798Z,3.15
2023-04-22T00:33:16.341Z,3.08
2023-04-22T00:35:45.228Z,4.47
2023-04-22T00:38:13.434Z,6.75
2023-04-22T00:40:41.771Z,4.43
2023-04-22T00:43:10.504Z,3.80
2023-04-22T00:45:38.829Z,7.03
2023-04-22T00:48:07.121Z,5.55
2023-04-22T00:50:36.691Z,6.13
2023-04-22T00:53:07.510Z,7.68
2023-04-22T00:55:36.315Z,3.90
2023-04-22T00:58:05.397Z,4.45
2023-04-22T01:00:33.932Z,4.95
2023-04-22T01:03:04.133Z,5.75
2023-04-22T01:05:32.980Z,6.80
2023-04-22T01:08:03.344Z,6.65
2023-04-22T01:10:31.606Z,3.10
2023-04-22T01:12:59.898Z,6.43
2023-04-22T01:15:28.700Z,3.00
2023-04-22T01:17:57.907Z,6.60
2023-04-22T01:20:30.445Z,3.72
2023-04-22T01:23:03.879Z,4.60
2023-04-22T01:25:34.563Z,3.47
2023-04-22T01:28:03.928Z,3.47
2023-04-22T01:30:32.950Z,5.72
2023-04-22T01:33:01.617Z,4.30
2023-04-22T01:35:36.666Z,3.47
2023-04-22T01:38:05.299Z,4.35
2023-04-22T01:40:35.849Z,6.47
2023-04-22T01:43:04.268Z,4.10
2023-04-22T01:45:32.623Z,2.97
2023-04-22T01:48:00.913Z,4.10
2023-04-22T01:50:29.310Z,2.95
2023-04-22T01:52:58.275Z,2.83
2023-04-22T01:55:29.469Z,4.38
2023-04-22T01:57:58.982Z,8.00
2023-04-22T02:00:27.233Z,6.55
2023-04-22T02:02:55.507Z,8.75
2023-04-22T02:05:25.430Z,5.95
2023-04-22T02:07:54.293Z,5.40
2023-04-22T02:10:22.817Z,8.07
2023-04-22T02:12:51.123Z,5.45
2023-04-22T02:15:20.989Z,3.40
2023-04-22T02:17:49.302Z,5.30
2023-04-22T02:20:18.727Z,5.60
2023-04-22T02:22:47.310Z,6.70
2023-04-22T02:25:15.547Z,3.88
2023-04-22T02:27:43.933Z,3.85
2023-04-22T02:30:13.404Z,3.08
2023-04-22T02:32:43.071Z,2.15
2023-04-22T02:35:12.062Z,3.45
2023-04-22T02:37:40.434Z,8.35
2023-04-22T02:40:09.831Z,12.20
2023-04-22T02:42:38.034Z,3.85
2023-04-22T02:45:07.444Z,3.28
2023-04-22T02:47:36.876Z,3.78
2023-04-22T02:50:08.739Z,3.22
2023-04-22T02:52:36.981Z,3.97
2023-04-22T02:55:05.670Z,2.85
2023-04-22T02:57:34.015Z,3.63
2023-04-22T03:00:02.422Z,4.05
2023-04-22T03:02:30.929Z,5.18
2023-04-22T03:05:15.976Z,3.47
2023-04-22T03:07:44.524Z,3.75
2023-04-22T03:10:13.094Z,4.63
2023-04-22T03:12:42.233Z,4.20
2023-04-22T03:15:11.085Z,2.20
2023-04-22T03:17:39.334Z,3.17
2023-04-22T03:20:12.705Z,4.10
2023-04-22T03:22:42.552Z,3.80
2023-04-22T03:25:13.389Z,4.20
2023-04-22T03:27:46.270Z,3.78
2023-04-22T03:30:14.684Z,2.22
2023-04-22T03:32:43.139Z,2.33
2023-04-22T03:35:33.882Z,3.30
2023-04-22T03:38:04.510Z,4.68
2023-04-22T03:40:35.454Z,4.20
2023-04-22T03:43:10.099Z,6.30
2023-04-22T03:45:39.185Z,7.32
2023-04-22T03:48:17.250Z,4.00
2023-04-22T03:50:49.695Z,5.03
2023-04-22T03:53:19.799Z,6.80
2023-04-22T03:55:48.174Z,5.80
2023-04-22T03:58:17.415Z,6.53
2023-04-22T04:00:47.343Z,4.13
2023-04-22T04:03:19.339Z,3.65
2023-04-22T04:05:51.516Z,3.90
2023-04-22T04:08:21.321Z,3.50
2023-04-22T04:10:50.384Z,9.02
2023-04-22T04:13:19.102Z,5.03
2023-04-22T04:16:02.529Z,2.92
2023-04-22T04:18:32.693Z,4.80
2023-04-22T04:21:01.747Z,13.50
2023-04-22T04:23:34.422Z,3.30
2023-04-22T04:26:05.788Z,5.28
2023-04-22T04:28:37.167Z,3.78
2023-04-22T04:31:06.361Z,4.93
2023-04-22T04:33:36.937Z,3.65
2023-04-22T04:36:05.650Z,4.90
2023-04-22T04:38:37.850Z,4.65
2023-04-22T04:41:08.680Z,6.72
2023-04-22T04:43:37.784Z,5.60
2023-04-22T04:46:17.657Z,4.68
2023-04-22T04:48:48.714Z,5.07
2023-04-22T04:51:19.651Z,3.55
2023-04-22T04:53:57.906Z,4.57
2023-04-22T04:56:30.906Z,3.63
2023-04-22T04:58:59.611Z,3.63
2023-04-22T05:01:29.474Z,3.72
2023-04-22T05:04:04.210Z,3.35
2023-04-22T05:06:33.804Z,3.50
2023-04-22T05:09:09.255Z,7.30
2023-04-22T05:11:38.267Z,5.53
2023-04-22T05:14:13.496Z,6.60
2023-04-22T05:16:44.224Z,8.73
2023-04-22T05:19:12.528Z,4.30
2023-04-22T05:21:40.843Z,7.25
2023-04-22T05:24:10.607Z,6.97
2023-04-22T05:26:38.959Z,2.90
2023-04-22T05:29:14.174Z,6.50
2023-04-22T05:31:42.661Z,6.30
2023-04-22T05:34:11.964Z,7.13
2023-04-22T05:36:40.682Z,5.78
2023-04-22T05:39:10.864Z,6.03
2023-04-22T05:41:40.467Z,8.15
2023-04-22T05:44:11.477Z,9.10
2023-04-22T05:46:40.005Z,4.43
2023-04-22T05:49:08.506Z,7.88
2023-04-22T05:51:55.084Z,6.43
2023-04-22T05:54:30.016Z,10.45
2023-04-22T05:56:58.468Z,9.57
2023-04-22T05:59:27.523Z,9.63
2023-04-22T06:01:56.531Z,8.25
2023-04-22T06:04:25.649Z,13.70
2023-04-22T06:06:54.473Z,11.82
2023-04-22T06:09:23.333Z,10.07
2023-04-22T06:11:53.867Z,9.05
2023-04-22T06:14:22.164Z,8.73
2023-04-22T06:16:52.692Z,7.70
2023-04-22T06:19:21.158Z,9.65
2023-04-22T06:21:49.337Z,7.10
2023-04-22T06:24:18.162Z,8.60
2023-04-22T06:26:46.529Z,10.02
2023-04-22T06:29:18.071Z,9.50
2023-04-22T06:31:46.649Z,12.40
2023-04-22T06:34:14.853Z,10.43
2023-04-22T06:36:45.560Z,11.60
2023-04-22T06:39:13.750Z,9.27
2023-04-22T06:41:50.142Z,9.18
2023-04-22T06:44:41.438Z,10.90
2023-04-22T06:47:45.369Z,8.23
2023-04-22T06:50:21.504Z,8.02
2023-04-22T06:52:55.488Z,12.75
2023-04-22T06:55:28.254Z,9.98
2023-04-22T06:57:56.781Z,8.43
2023-04-22T07:00:26.750Z,8.85
2023-04-22T07:02:55.284Z,7.55
2023-04-22T07:05:23.984Z,6.22
2023-04-22T07:07:52.442Z,7.93
2023-04-22T07:10:26.173Z,7.70
2023-04-22T07:13:13.158Z,6.90
2023-04-22T07:15:42.789Z,10.38
2023-04-22T07:18:10.996Z,8.38
2023-04-22T07:20:39.285Z,6.35
2023-04-22T07:23:07.506Z,11.50
2023-04-22T07:25:38.396Z,7.68
2023-04-22T07:28:08.576Z,15.60
2023-04-22T07:30:36.939Z,8.35
2023-04-22T07:33:06.718Z,11.23
2023-04-22T07:35:35.001Z,8.30
2023-04-22T07:38:03.430Z,14.55
2023-04-22T07:40:31.662Z,7.18
2023-04-22T07:42:59.839Z,9.38
2023-04-22T07:45:28.194Z,10.38
2023-04-22T07:47:56.537Z,8.55
2023-04-22T07:50:26.292Z,11.13
2023-04-22T07:52:57.337Z,9.23
2023-04-22T07:55:25.675Z,9.48
2023-04-22T07:57:53.858Z,10.32
2023-04-22T08:00:22.085Z,8.52
2023-04-22T08:02:50.980Z,9.95
2023-04-22T08:05:19.780Z,13.85
2023-04-22T08:07:49.409Z,12.10
2023-04-22T08:10:17.637Z,11.20
2023-04-22T08:12:46.008Z,12.50
2023-04-22T08:15:14.204Z,10.68
2023-04-22T08:17:42.419Z,15.80
2023-04-22T08:20:11.102Z,14.13
2023-04-22T08:22:39.824Z,12.27
2023-04-22T08:25:10.366Z,7.03
2023-04-22T08:27:38.741Z,8.32
2023-04-22T08:30:09.112Z,8.20
2023-04-22T08:32:37.473Z,8.50
2023-04-22T08:35:06.963Z,9.43
2023-04-22T08:37:39.518Z,6.43
2023-04-22T08:40:10.492Z,7.70
2023-04-22T08:42:39.199Z,4.22
2023-04-22T08:45:09.752Z,5.90
2023-04-22T08:47:39.123Z,5.72
2023-04-22T08:50:09.741Z,6.32
2023-04-22T08:52:38.934Z,4.97
2023-04-22T08:55:09.803Z,4.13
2023-04-22T08:57:40.492Z,5.30
2023-04-22T09:00:09.915Z,6.00
2023-04-22T09:02:39.271Z,7.68
2023-04-22T09:05:10.117Z,5.68
2023-04-22T09:07:40.958Z,6.25
2023-04-22T09:10:11.952Z,5.68
2023-04-22T09:12:42.368Z,19.42
2023-04-22T09:15:11.599Z,9.98
2023-04-22T09:17:41.289Z,5.97
2023-04-22T09:20:10.055Z,6.57
2023-04-22T09:22:41.057Z,4.55
2023-04-22T09:25:20.894Z,4.90
2023-04-22T09:27:52.792Z,5.85
2023-04-22T09:30:25.512Z,9.73
2023-04-22T09:32:55.054Z,13.82
2023-04-22T09:35:30.838Z,12.15
2023-04-22T09:38:01.214Z,6.95
2023-04-22T09:40:32.181Z,3.70
2023-04-22T09:43:03.587Z,5.75
2023-04-22T09:45:35.310Z,6.72
2023-04-22T09:48:07.450Z,6.40
2023-04-22T09:50:35.819Z,6.95
2023-04-22T09:53:05.943Z,6.70
2023-04-22T09:55:37.676Z,5.32
2023-04-22T09:58:08.845Z,8.45
2023-04-22T10:00:40.521Z,5.95
2023-04-22T10:03:10.861Z,5.82
2023-04-22T10:05:39.691Z,4.65
2023-04-22T10:08:09.553Z,9.80
2023-04-22T10:10:40.226Z,4.90
2023-04-22T10:13:09.877Z,4.32
2023-04-22T10:15:41.444Z,7.22
2023-04-22T10:18:15.977Z,5.20
2023-04-22T10:20:45.736Z,4.40
2023-04-22T10:23:16.851Z,4.63
2023-04-22T10:25:48.842Z,5.85
2023-04-22T10:28:18.620Z,5.10
2023-04-22T10:30:49.859Z,6.53
2023-04-22T10:33:36.985Z,6.88
2023-04-22T10:36:10.817Z,5.22
2023-04-22T10:38:40.087Z,13.10
2023-04-22T10:41:15.264Z,6.95
2023-04-22T10:43:45.512Z,4.60
2023-04-22T10:46:47.884Z,6.15
2023-04-22T10:49:21.596Z,8.00
2023-04-22T10:51:51.525Z,5.35
2023-04-22T10:54:58.027Z,6.13
2023-04-22T10:57:36.201Z,7.53
2023-04-22T11:03:12.410Z,7.40
2023-04-22T11:05:41.811Z,6.45
2023-04-22T11:08:16.485Z,8.13
2023-04-22T11:10:47.410Z,7.55
2023-04-22T11:13:18.881Z,7.00
2023-04-22T11:15:49.007Z,7.00
2023-04-22T11:18:20.617Z,9.02
2023-04-22T11:20:49.872Z,6.88
2023-04-22T11:23:23.242Z,8.07
2023-04-22T11:25:57.532Z,7.13
2023-04-22T11:28:27.753Z,6.88
2023-04-22T11:31:03.308Z,4.82
2023-04-22T11:33:32.991Z,4.97
2023-04-22T11:36:01.312Z,6.63
2023-04-22T11:38:29.841Z,6.00
2023-04-22T11:40:58.405Z,4.85
2023-04-22T11:43:28.048Z,6.15
2023-04-22T11:45:58.013Z,7.45
2023-04-22T11:48:26.725Z,7.93
2023-04-22T11:51:10.393Z,4.20
2023-04-22T11:53:41.142Z,6.07
2023-04-22T11:56:09.420Z,4.50
2023-04-22T11:58:41.418Z,5.85
2023-04-22T12:01:16.905Z,6.28
2023-04-22T12:03:45.334Z,5.18
2023-04-22T12:06:15.686Z,6.75
2023-04-22T12:08:44.925Z,5.60
2023-04-22T12:11:13.757Z,5.68
2023-04-22T12:13:46.204Z,5.10
2023-04-22T12:16:18.644Z,5.70
2023-04-22T12:18:51.297Z,4.75
2023-04-22T12:21:22.303Z,5.97
2023-04-22T12:23:53.211Z,4.25
2023-04-22T12:26:26.642Z,3.80
2023-04-22T12:28:58.292Z,4.55
2023-04-22T12:31:27.148Z,3.85
2023-04-22T12:33:55.697Z,4.47
2023-04-22T12:36:26.155Z,3.55
2023-04-22T12:38:54.400Z,5.60
2023-04-22T12:41:23.589Z,4.65
2023-04-22T12:43:52.532Z,6.90
2023-04-22T12:46:22.391Z,5.78
2023-04-22T12:48:50.739Z,5.85
2023-04-22T12:51:18.950Z,4.07
2023-04-22T12:53:47.195Z,4.05
2023-04-22T12:56:15.561Z,4.43
2023-04-22T12:58:43.750Z,3.70
2023-04-22T13:01:11.950Z,7.55
2023-04-22T13:03:41.866Z,3.75
2023-04-22T13:06:10.345Z,4.38
2023-04-22T13:08:38.696Z,4.57
2023-04-22T13:11:07.152Z,8.40
2023-04-22T13:13:35.639Z,7.93
2023-04-22T13:16:03.954Z,4.18
2023-04-22T13:18:32.602Z,4.80
2023-04-22T13:21:02.164Z,11.57
2023-04-22T13:23:30.817Z,4.07
2023-04-22T13:25:59.036Z,3.72
2023-04-22T13:28:27.219Z,4.95
2023-04-22T13:30:58.575Z,4.38
2023-04-22T13:33:26.861Z,5.60
2023-04-22T13:35:55.168Z,4.28
2023-04-22T13:38:24.741Z,6.07
2023-04-22T13:40:52.911Z,5.10
2023-04-22T13:43:21.085Z,5.43
2023-04-22T13:45:49.482Z,7.25
2023-04-22T13:48:17.697Z,3.28
2023-04-22T13:50:46.176Z,5.68
2023-04-22T13:53:15.459Z,3.92
2023-04-22T13:55:47.803Z,6.97
2023-04-22T13:58:16.042Z,4.10
2023-04-22T14:00:44.485Z,4.72
2023-04-22T14:03:12.922Z,6.03
2023-04-22T14:05:41.254Z,4.75
2023-04-22T14:08:09.448Z,5.13
2023-04-22T14:10:37.616Z,6.25
2023-04-22T14:13:09.856Z,3.17
2023-04-22T14:15:39.298Z,4.45
2023-04-22T14:18:07.628Z,3.00
2023-04-22T14:20:38.688Z,4.88
2023-04-22T14:23:07.189Z,8.43
2023-04-22T14:25:35.471Z,5.22
2023-04-22T14:28:04.003Z,5.90
2023-04-22T14:30:36.011Z,3.38
2023-04-22T14:33:06.948Z,5.97
2023-04-22T14:35:35.281Z,4.82
2023-04-22T14:38:05.148Z,3.90
2023-04-22T14:40:33.423Z,7.30
2023-04-22T14:43:09.066Z,10.45
2023-04-22T14:45:38.639Z,7.57
2023-04-22T14:48:07.139Z,4.80
2023-04-22T14:50:35.399Z,4.65
2023-04-22T14:53:04.119Z,9.77
2023-04-22T14:55:32.547Z,6.50
2023-04-22T14:58:00.805Z,5.22
2023-04-22T15:00:29.617Z,6.75
2023-04-22T15:02:59.375Z,4.68
2023-04-22T15:05:27.655Z,4.32
2023-04-22T15:07:58.989Z,6.05
2023-04-22T15:10:28.226Z,7.30
2023-04-22T15:12:56.404Z,4.82
2023-04-22T15:15:24.601Z,6.07
2023-04-22T15:17:52.892Z,4.70
2023-04-22T15:20:22.545Z,6.90
2023-04-22T15:22:50.772Z,5.10
2023-04-22T15:25:19.141Z,4.57
2023-04-22T15:27:47.966Z,9.35
2023-04-22T15:30:16.424Z,4.63
2023-04-22T15:32:44.636Z,4.38
2023-04-22T15:35:13.000Z,4.78
2023-04-22T15:37:42.552Z,4.65
2023-04-22T15:40:11.055Z,5.82
2023-04-22T15:42:39.279Z,4.07
2023-04-22T15:45:08.581Z,3.40
2023-04-22T15:47:37.439Z,3.75
2023-04-22T15:50:08.729Z,4.32
2023-04-22T15:52:38.391Z,4.10
2023-04-22T15:55:09.302Z,8.43
2023-04-22T15:57:37.539Z,5.03
2023-04-22T16:00:12.694Z,3.85
2023-04-22T16:02:54.929Z,3.10
2023-04-22T16:05:24.792Z,4.72
2023-04-22T16:07:53.706Z,5.97
2023-04-22T16:10:26.205Z,4.57
2023-04-22T16:12:57.419Z,5.68
2023-04-22T16:15:26.601Z,5.65
2023-04-22T16:17:54.838Z,6.35
2023-04-22T16:20:23.294Z,5.97
2023-04-22T16:22:51.574Z,3.83
2023-04-22T16:25:19.996Z,6.63
2023-04-22T16:27:49.669Z,4.65
2023-04-22T16:30:18.194Z,4.30
2023-04-22T16:32:46.411Z,5.50
2023-04-22T16:35:16.537Z,8.65
2023-04-22T16:37:44.836Z,3.35
2023-04-22T16:40:13.679Z,8.27
2023-04-22T16:42:42.049Z,4.05
2023-04-22T16:45:12.239Z,5.00
2023-04-22T16:47:40.589Z,11.30
2023-04-22T16:50:12.111Z,4.38
2023-04-22T16:52:40.445Z,4.28
2023-04-22T16:55:09.498Z,6.50
2023-04-22T16:57:37.688Z,3.88
2023-04-22T17:00:07.780Z,7.72
2023-04-22T17:02:37.634Z,8.45
2023-04-22T17:05:06.921Z,8.73
2023-04-22T17:07:35.139Z,8.43
2023-04-22T17:10:03.524Z,6.65
2023-04-22T17:12:31.965Z,6.95
2023-04-22T17:15:00.316Z,5.03
2023-04-22T17:17:28.549Z,8.95
2023-04-22T17:19:58.178Z,9.05
2023-04-22T17:22:26.972Z,6.88
2023-04-22T17:24:56.598Z,12.75
2023-04-22T17:27:24.859Z,11.88
2023-04-22T17:29:53.049Z,22.67
2023-04-22T17:32:21.291Z,18.92
2023-04-22T17:34:49.633Z,23.80
2023-04-22T17:37:19.215Z,27.77
2023-04-22T17:39:47.460Z,27.73
2023-04-22T17:42:16.244Z,22.42
2023-04-22T17:44:44.959Z,17.98
2023-04-22T17:47:13.227Z,13.95
2023-04-22T17:49:41.705Z,13.13
2023-04-22T17:52:10.111Z,21.17
2023-04-22T17:54:39.668Z,38.47
2023-04-22T17:57:07.856Z,36.35
2023-04-22T17:59:36.107Z,32.25
2023-04-22T18:02:04.807Z,27.83
2023-04-22T18:04:33.072Z,20.92
2023-04-22T18:07:01.524Z,21.33
2023-04-22T18:09:29.752Z,22.77
2023-04-22T18:11:59.558Z,24.15
2023-04-22T18:14:27.793Z,20.77
2023-04-22T18:16:59.137Z,18.90
2023-04-22T18:19:30.448Z,19.08
2023-04-22T18:22:00.283Z,23.90
2023-04-22T18:24:29.018Z,16.75
2023-04-22T18:26:57.208Z,18.55
2023-04-22T18:29:27.052Z,16.10
2023-04-22T18:31:55.284Z,12.48
2023-04-22T18:34:23.575Z,13.07
2023-04-22T18:36:51.840Z,12.00
2023-04-22T18:39:20.040Z,10.55
2023-04-22T18:41:48.364Z,10.32
2023-04-22T18:44:20.101Z,9.05
2023-04-22T18:46:50.363Z,10.38
2023-04-22T18:49:18.655Z,13.50
2023-04-22T18:51:49.153Z,15.80
2023-04-22T18:54:17.540Z,15.15
2023-04-22T18:56:46.058Z,15.15
2023-04-22T18:59:14.472Z,17.73
2023-04-22T19:01:42.848Z,21.30
2023-04-22T19:04:12.908Z,18.80
2023-04-22T19:06:41.405Z,21.50
2023-04-22T19:09:09.650Z,14.57
2023-04-22T19:11:37.894Z,16.42
2023-04-22T19:14:06.370Z,22.77
2023-04-22T19:16:37.012Z,13.82
2023-04-22T19:19:05.225Z,11.77
2023-04-22T19:21:35.893Z,14.35
2023-04-22T19:24:04.886Z,15.00
2023-04-22T19:26:33.133Z,13.85
2023-04-22T19:29:01.363Z,14.80
2023-04-22T19:31:30.233Z,18.88
2023-04-22T19:33:59.202Z,17.40
2023-04-22T19:36:28.165Z,19.45
2023-04-22T19:38:57.837Z,22.90
2023-04-22T19:41:28.983Z,20.20
2023-04-22T19:43:58.910Z,17.88
2023-04-22T19:46:27.289Z,12.45
2023-04-22T19:48:56.003Z,69.15
2023-04-22T19:51:24.766Z,56.63
2023-04-22T19:53:55.401Z,51.47
2023-04-22T19:56:25.759Z,32.42
2023-04-22T19:58:54.230Z,20.67
2023-04-22T20:01:22.780Z,17.15
2023-04-22T20:03:52.148Z,10.63
2023-04-22T20:06:22.744Z,12.88
2023-04-22T20:08:54.232Z,10.73
2023-04-22T20:11:25.942Z,10.70
2023-04-22T20:13:55.977Z,8.05
2023-04-22T20:16:25.089Z,12.45
2023-04-22T20:18:54.451Z,8.82
2023-04-22T20:21:22.882Z,7.65
2023-04-22T20:23:53.203Z,12.18
2023-04-22T20:26:22.279Z,8.45
2023-04-22T20:28:56.334Z,8.13
2023-04-22T20:31:24.945Z,7.45
2023-04-22T20:33:53.755Z,7.78
2023-04-22T20:36:22.443Z,7.90
2023-04-22T20:38:52.090Z,10.35
2023-04-22T20:41:20.698Z,9.48
2023-04-22T20:43:49.018Z,8.38
2023-04-22T20:46:20.756Z,9.18
2023-04-22T20:48:50.408Z,7.40
2023-04-22T20:51:19.063Z,6.22
2023-04-22T20:53:47.505Z,7.22
2023-04-22T20:56:15.696Z,4.93
2023-04-22T20:58:43.900Z,8.02
2023-04-22T21:01:16.149Z,6.72
2023-04-22T21:03:51.424Z,8.35
2023-04-22T21:06:21.590Z,9.43
2023-04-22T21:08:50.603Z,6.65
2023-04-22T21:11:19.500Z,6.90
2023-04-22T21:13:51.261Z,8.32
2023-04-22T21:16:24.118Z,8.55
2023-04-22T21:18:57.626Z,8.13
2023-04-22T21:21:31.348Z,10.93
2023-04-22T21:24:01.652Z,8.60
2023-04-22T21:26:30.769Z,6.35
2023-04-22T21:28:59.525Z,5.50
2023-04-22T21:31:28.116Z,7.70
2023-04-22T21:34:04.683Z,7.15
2023-04-22T21:36:33.068Z,5.78
2023-04-22T21:39:02.689Z,7.97
2023-04-22T21:41:31.005Z,5.40
2023-04-22T21:43:59.201Z,6.78
2023-04-22T21:46:27.408Z,9.10
2023-04-22T21:48:56.032Z,10.73
2023-04-22T21:51:27.053Z,12.40
2023-04-22T21:53:55.417Z,11.55
2023-04-22T21:56:23.644Z,10.23
2023-04-22T21:58:51.812Z,14.57
2023-04-22T22:01:20.019Z,12.55
2023-04-22T22:03:48.477Z,14.02
2023-04-22T22:06:16.807Z,16.30
2023-04-22T22:08:46.819Z,14.77
2023-04-22T22:11:27.485Z,14.00
2023-04-22T22:13:58.354Z,21.80
2023-04-22T22:16:28.228Z,23.30
2023-04-22T22:18:57.813Z,10.45
2023-04-22T22:21:26.220Z,7.13
2023-04-22T22:23:57.435Z,7.25
2023-04-22T22:26:26.203Z,7.60
2023-04-22T22:28:54.649Z,6.57
2023-04-22T22:31:22.853Z,6.00
2023-04-22T22:33:51.098Z,7.30
2023-04-22T22:36:19.763Z,7.43
2023-04-22T22:38:48.064Z,6.72
2023-04-22T22:41:17.647Z,8.63
2023-04-22T22:43:45.828Z,8.50
2023-04-22T22:46:14.262Z,6.28
2023-04-22T22:48:42.511Z,5.50
2023-04-22T22:51:18.366Z,7.10
2023-04-22T22:53:49.732Z,6.20
2023-04-22T22:56:20.969Z,6.80
2023-04-22T22:58:49.268Z,4.40
2023-04-22T23:01:17.572Z,7.65
2023-04-22T23:03:47.128Z,5.88
2023-04-22T23:06:15.579Z,5.60
2023-04-22T23:08:43.884Z,7.53
2023-04-22T23:11:12.486Z,5.95
2023-04-22T23:13:42.142Z,7.30
2023-04-22T23:16:10.355Z,8.00
2023-04-22T23:18:40.104Z,5.97
2023-04-22T23:21:08.587Z,7.75
2023-04-22T23:23:37.725Z,8.13
2023-04-22T23:26:07.736Z,7.18
2023-04-22T23:28:36.666Z,7.45
2023-04-22T23:31:09.045Z,9.15
2023-04-22T23:33:42.572Z,6.85
2023-04-22T23:36:13.620Z,6.57
2023-04-22T23:38:41.862Z,7.40
2023-04-22T23:41:10.035Z,6.32
2023-04-22T23:43:38.204Z,7.32
2023-04-22T23:46:07.904Z,7.10
2023-04-22T23:48:36.126Z,8.05
2023-04-22T23:51:04.351Z,7.75
2023-04-22T23:53:32.523Z,7.53
2023-04-22T23:56:01.285Z,6.55
2023-04-22T23:58:29.785Z,8.75
